Horizon — 9HYZ9 — position and weather

sailwx.info

Track history (hours):
 
Tides and Currents Weather Stations Pressure Air Temp Water Temp Dewpoint Dewpoint Depression Visibility Wind Speed Wind Dir Waves Ship Positions

Horizon

Last reported at 2017-Nov-16 19:57 UTC. Time now 2017-Nov-18 08:56 UTC.
Position N 43°06' E 009°02'.

Length 207 m; draft 7.7 m.

Type: Passenger vessel. MMSI: 249727000.

Date/timePositionNaut miles runAvg speedWind from/ knotsBaromVisibWave heightAir tempDewpointWater temp
2017-Nov-16 19:57N 43°06' E 009°02'818.4
2017-Nov-16 19:30N 43°11' E 009°12'918.2
2017-Nov-16 19:00N 43°14' E 009°23'918.1
2017-Nov-16 18:30N 43°15' E 009°35'917.9
2017-Nov-16 18:00N 43°16' E 009°48'817.2
2017-Nov-16 17:31N 43°19' E 009°59'918.7
2017-Nov-16 17:00N 43°26' E 010°07'816.8
2017-Nov-16 16:30N 43°32' E 010°15'2 3.4
2017-Nov-16 15:55N 43°33' E 010°18'0 0.0
2017-Nov-16 15:28N 43°33' E 010°18'0 0.0
2017-Nov-16 14:58N 43°33' E 010°18'0 0.0
2017-Nov-16 14:28N 43°33' E 010°18'0 0.0
2017-Nov-16 13:58N 43°33' E 010°18'0 0.0
2017-Nov-16 13:22N 43°33' E 010°18'0 0.0
2017-Nov-16 12:58N 43°33' E 010°18'0 0.0
2017-Nov-16 12:22N 43°33' E 010°18'0 0.0
2017-Nov-16 11:58N 43°33' E 010°18'0 0.0
2017-Nov-16 11:28N 43°33' E 010°18'0 0.0
2017-Nov-16 10:52N 43°33' E 010°18'0 0.0
2017-Nov-16 10:28N 43°33' E 010°18'0 0.0
2017-Nov-16 09:58N 43°33' E 010°18'0 0.0
2017-Nov-16 09:28N 43°33' E 010°18'0 0.0
2017-Nov-16 08:58N 43°33' E 010°18'0 0.0
2017-Nov-16 08:28N 43°33' E 010°18'0 0.0
2017-Nov-16 07:58N 43°33' E 010°18'0 0.0
2017-Nov-16 07:28N 43°33' E 010°18'0 0.0
2017-Nov-16 06:55N 43°33' E 010°18'0 0.0
2017-Nov-16 06:28N 43°33' E 010°18'0 0.0
2017-Nov-16 05:58N 43°33' E 010°18'0 0.4
2017-Nov-16 05:30N 43°33' E 010°18'4 6.9
2017-Nov-16 04:57N 43°30' E 010°14'614.5
2017-Nov-16 04:31N 43°24' E 010°12'815.6
2017-Nov-16 04:00N 43°16' E 010°09'814.0
2017-Nov-16 03:26N 43°09' E 010°07'614.1
2017-Nov-16 03:00N 43°02' E 010°05'  
2017-Nov-11 19:29N 37°06' W 001°11'814.8
2017-Nov-11 18:59N 37°11' W 001°04'714.7
2017-Nov-11 18:30N 37°16' W 000°58'815.0
2017-Nov-11 18:00N 37°21' W 000°51'814.9
2017-Nov-11 17:30N 37°26' W 000°44'714.7
2017-Nov-11 16:59N 37°32' W 000°37'714.1
2017-Nov-11 16:30N 37°37' W 000°32'714.5
2017-Nov-11 16:00N 37°44' W 000°30'914.2
2017-Nov-11 15:23N 37°53' W 000°27'513.6
2017-Nov-11 15:00N 37°58' W 000°25'714.0
2017-Nov-11 14:30N 38°04' W 000°23'53312.5
2017-Nov-09 19:43N 43°12' E 009°10'518.6
2017-Nov-09 19:27N 43°13' E 009°17'918.5
2017-Nov-09 18:58N 43°15' E 009°29'818.3
2017-Nov-09 18:30N 43°16' E 009°40'918.2
2017-Nov-09 18:00N 43°18' E 009°53'917.3
2017-Nov-09 17:30N 43°23' E 010°03'918.0
2017-Nov-09 17:00N 43°30' E 010°10'612.3
2017-Nov-09 16:31N 43°33' E 010°18'0 0.1
2017-Nov-09 15:57N 43°33' E 010°18'0 0.0
2017-Nov-09 15:30N 43°33' E 010°18'0 0.0
2017-Nov-09 15:00N 43°33' E 010°18'0 0.0
2017-Nov-09 14:30N 43°33' E 010°18'0 0.0
2017-Nov-09 13:57N 43°33' E 010°18'0 0.0
2017-Nov-09 13:30N 43°33' E 010°18'0 0.0
2017-Nov-09 13:00N 43°33' E 010°18'0 0.0
2017-Nov-09 12:30N 43°33' E 010°18'0 0.0
2017-Nov-09 12:00N 43°33' E 010°18'0 0.0
2017-Nov-09 11:30N 43°33' E 010°18'0 0.0
2017-Nov-09 11:00N 43°33' E 010°18'0 0.0
2017-Nov-09 10:30N 43°33' E 010°18'0 0.0
2017-Nov-09 10:00N 43°33' E 010°18'0 0.0
2017-Nov-09 09:30N 43°33' E 010°18'0 0.0
2017-Nov-09 09:00N 43°33' E 010°18'0 0.0
2017-Nov-09 08:30N 43°33' E 010°18'0 0.0
2017-Nov-09 08:00N 43°33' E 010°18'0 0.0
2017-Nov-09 07:30N 43°33' E 010°18'0 0.0
2017-Nov-09 07:00N 43°33' E 010°18'0 0.0
2017-Nov-09 06:30N 43°33' E 010°18'0 0.0
2017-Nov-09 06:00N 43°33' E 010°18'0 0.0
2017-Nov-09 05:30N 43°33' E 010°18'1 2.9
2017-Nov-09 05:00N 43°32' E 010°16'4 8.9
2017-Nov-09 04:30N 43°28' E 010°13'714.3
2017-Nov-09 04:00N 43°21' E 010°11'714.2
2017-Nov-09 03:30N 43°14' E 010°08'714.2
2017-Nov-09 03:00N 43°08' E 010°06'  
Track history (hours):
 
Tides and Currents Weather Stations Pressure Air Temp Water Temp Dewpoint Dewpoint Depression Visibility Wind Speed Wind Dir Waves Ship Positions

Horizon

Last reported at 2017-Nov-16 19:57 UTC. Time now 2017-Nov-18 08:56 UTC.
Position N 43°06' E 009°02'.

Length 207 m; draft 7.7 m.

Type: Passenger vessel. MMSI: 249727000.

Date/timePositionNaut miles runAvg speedWind from/ knotsBaromVisibWave heightAir tempDewpointWater temp
2017-Nov-16 19:57N 43°06' E 009°02'818.4
2017-Nov-16 19:30N 43°11' E 009°12'918.2
2017-Nov-16 19:00N 43°14' E 009°23'918.1
2017-Nov-16 18:30N 43°15' E 009°35'917.9
2017-Nov-16 18:00N 43°16' E 009°48'817.2
2017-Nov-16 17:31N 43°19' E 009°59'918.7
2017-Nov-16 17:00N 43°26' E 010°07'816.8
2017-Nov-16 16:30N 43°32' E 010°15'2 3.4
2017-Nov-16 15:55N 43°33' E 010°18'0 0.0
2017-Nov-16 15:28N 43°33' E 010°18'0 0.0
2017-Nov-16 14:58N 43°33' E 010°18'0 0.0
2017-Nov-16 14:28N 43°33' E 010°18'0 0.0
2017-Nov-16 13:58N 43°33' E 010°18'0 0.0
2017-Nov-16 13:22N 43°33' E 010°18'0 0.0
2017-Nov-16 12:58N 43°33' E 010°18'0 0.0
2017-Nov-16 12:22N 43°33' E 010°18'0 0.0
2017-Nov-16 11:58N 43°33' E 010°18'0 0.0
2017-Nov-16 11:28N 43°33' E 010°18'0 0.0
2017-Nov-16 10:52N 43°33' E 010°18'0 0.0
2017-Nov-16 10:28N 43°33' E 010°18'0 0.0
2017-Nov-16 09:58N 43°33' E 010°18'0 0.0
2017-Nov-16 09:28N 43°33' E 010°18'0 0.0
2017-Nov-16 08:58N 43°33' E 010°18'0 0.0
2017-Nov-16 08:28N 43°33' E 010°18'0 0.0
2017-Nov-16 07:58N 43°33' E 010°18'0 0.0
2017-Nov-16 07:28N 43°33' E 010°18'0 0.0
2017-Nov-16 06:55N 43°33' E 010°18'0 0.0
2017-Nov-16 06:28N 43°33' E 010°18'0 0.0
2017-Nov-16 05:58N 43°33' E 010°18'0 0.4
2017-Nov-16 05:30N 43°33' E 010°18'4 6.9
2017-Nov-16 04:57N 43°30' E 010°14'614.5
2017-Nov-16 04:31N 43°24' E 010°12'815.6
2017-Nov-16 04:00N 43°16' E 010°09'814.0
2017-Nov-16 03:26N 43°09' E 010°07'614.1
2017-Nov-16 03:00N 43°02' E 010°05'  
2017-Nov-11 19:29N 37°06' W 001°11'814.8
2017-Nov-11 18:59N 37°11' W 001°04'714.7
2017-Nov-11 18:30N 37°16' W 000°58'815.0
2017-Nov-11 18:00N 37°21' W 000°51'814.9
2017-Nov-11 17:30N 37°26' W 000°44'714.7
2017-Nov-11 16:59N 37°32' W 000°37'714.1
2017-Nov-11 16:30N 37°37' W 000°32'714.5
2017-Nov-11 16:00N 37°44' W 000°30'914.2
2017-Nov-11 15:23N 37°53' W 000°27'513.6
2017-Nov-11 15:00N 37°58' W 000°25'714.0
2017-Nov-11 14:30N 38°04' W 000°23'53312.5
2017-Nov-09 19:43N 43°12' E 009°10'518.6
2017-Nov-09 19:27N 43°13' E 009°17'918.5
2017-Nov-09 18:58N 43°15' E 009°29'818.3
2017-Nov-09 18:30N 43°16' E 009°40'918.2
2017-Nov-09 18:00N 43°18' E 009°53'917.3
2017-Nov-09 17:30N 43°23' E 010°03'918.0
2017-Nov-09 17:00N 43°30' E 010°10'612.3
2017-Nov-09 16:31N 43°33' E 010°18'0 0.1
2017-Nov-09 15:57N 43°33' E 010°18'0 0.0
2017-Nov-09 15:30N 43°33' E 010°18'0 0.0
2017-Nov-09 15:00N 43°33' E 010°18'0 0.0
2017-Nov-09 14:30N 43°33' E 010°18'0 0.0
2017-Nov-09 13:57N 43°33' E 010°18'0 0.0
2017-Nov-09 13:30N 43°33' E 010°18'0 0.0
2017-Nov-09 13:00N 43°33' E 010°18'0 0.0
2017-Nov-09 12:30N 43°33' E 010°18'0 0.0
2017-Nov-09 12:00N 43°33' E 010°18'0 0.0
2017-Nov-09 11:30N 43°33' E 010°18'0 0.0
2017-Nov-09 11:00N 43°33' E 010°18'0 0.0
2017-Nov-09 10:30N 43°33' E 010°18'0 0.0
2017-Nov-09 10:00N 43°33' E 010°18'0 0.0
2017-Nov-09 09:30N 43°33' E 010°18'0 0.0
2017-Nov-09 09:00N 43°33' E 010°18'0 0.0
2017-Nov-09 08:30N 43°33' E 010°18'0 0.0
2017-Nov-09 08:00N 43°33' E 010°18'0 0.0
2017-Nov-09 07:30N 43°33' E 010°18'0 0.0
2017-Nov-09 07:00N 43°33' E 010°18'0 0.0
2017-Nov-09 06:30N 43°33' E 010°18'0 0.0
2017-Nov-09 06:00N 43°33' E 010°18'0 0.0
2017-Nov-09 05:30N 43°33' E 010°18'1 2.9
2017-Nov-09 05:00N 43°32' E 010°16'4 8.9
2017-Nov-09 04:30N 43°28' E 010°13'714.3
2017-Nov-09 04:00N 43°21' E 010°11'714.2
2017-Nov-09 03:30N 43°14' E 010°08'714.2
2017-Nov-09 03:00N 43°08' E 010°06'  

Dump ship's entire track history